Time;durP1;ratioP1;P1;durP2;ratioP2;P2;SDS_P1;SDS_P2;PMS_P1;PMS_P2;Temp;Humidity;BMP_temperature;BMP_pressure;BME280_temperature;BME280_humidity;BME280_pressure;Samples;Min_cycle;Max_cycle;Signal;HPM_P1;HPM_P2
2022/01/30 00:00:40;;;;;;;;;;;1.20;89.80;;;;;;5054898;28;20359;-87
2022/01/30 00:03:06;;;;;;;;;;;1.20;89.70;;;;;;5055569;28;19917;-87
2022/01/30 00:05:34;;;;;;;;;;;1.30;89.60;;;;;;5054825;28;20430;-87
2022/01/30 00:08:00;;;;;;;;;;;1.30;89.30;;;;;;5054932;28;19935;-88
2022/01/30 00:10:25;;;;;;;;;;;1.30;89.00;;;;;;5054985;28;20366;-87
2022/01/30 00:12:57;;;;;;;;;;;1.40;88.80;;;;;;5055004;28;20007;-88
2022/01/30 00:15:36;;;;;;;;;;;1.40;88.50;;;;;;5054864;28;19959;-87
2022/01/30 00:23:55;;;;;;;;;;;1.20;87.80;;;;;;5023641;28;19923;-87
2022/01/30 00:26:27;;;;;;;;;;;1.20;87.70;;;;;;5054278;28;19912;-87
2022/01/30 00:28:53;;;;;;;;;;;1.20;87.60;;;;;;5054381;28;19920;-87
2022/01/30 00:31:20;;;;;;;;;;;1.10;87.20;;;;;;5054418;28;19936;-87
2022/01/30 00:33:46;;;;;;;;;;;1.00;87.50;;;;;;5054076;28;19913;-87
2022/01/30 00:36:11;;;;;;;;;;;1.10;87.90;;;;;;5054630;28;19915;-87
2022/01/30 00:38:37;;;;;;;;;;;1.10;87.70;;;;;;5054476;28;19908;-87
2022/01/30 00:41:02;;;;;;;;;;;1.10;87.50;;;;;;5054025;28;20367;-87
2022/01/30 00:43:28;;;;;;;;;;;1.20;87.40;;;;;;5054219;28;19913;-87
2022/01/30 00:45:53;;;;;;;;;;;1.20;87.40;;;;;;5054206;28;19924;-87
2022/01/30 00:48:19;;;;;;;;;;;1.20;87.60;;;;;;5036340;28;20270;-88
2022/01/30 00:50:45;;;;;;;;;;;1.20;87.70;;;;;;5054350;28;19909;-87
2022/01/30 00:53:10;;;;;;;;;;;1.20;87.60;;;;;;5054580;28;20362;-87
2022/01/30 00:55:36;;;;;;;;;;;1.00;87.10;;;;;;5054205;28;19912;-87
2022/01/30 00:58:02;;;;;;;;;;;1.00;86.80;;;;;;5053782;28;19928;-87
2022/01/30 01:00:28;;;;;;;;;;;0.90;86.40;;;;;;5054100;28;19956;-87
2022/01/30 01:02:54;;;;;;;;;;;0.70;86.60;;;;;;5053605;28;20367;-87
2022/01/30 01:05:20;;;;;;;;;;;0.80;87.20;;;;;;5054058;28;19909;-87
2022/01/30 01:07:48;;;;;;;;;;;0.80;87.20;;;;;;5053778;28;20409;-87
2022/01/30 01:25:57;;;;;;;;;;;0.50;86.90;;;;;;5054008;28;19913;-87
2022/01/30 01:28:22;;;;;;;;;;;0.50;86.80;;;;;;5053230;28;19912;-87
2022/01/30 01:30:48;;;;;;;;;;;0.50;86.80;;;;;;5053889;28;19916;-87
2022/01/30 01:33:15;;;;;;;;;;;0.50;86.60;;;;;;5053339;28;19920;-87
2022/01/30 01:35:41;;;;;;;;;;;0.50;86.40;;;;;;5053520;28;19941;-87
2022/01/30 01:38:11;;;;;;;;;;;0.50;86.50;;;;;;5053051;28;20278;-87
2022/01/30 01:40:37;;;;;;;;;;;0.50;86.90;;;;;;5052893;28;19928;-87
2022/01/30 01:43:03;;;;;;;;;;;0.50;87.30;;;;;;5053422;28;19916;-87
2022/01/30 01:45:34;;;;;;;;;;;0.60;87.60;;;;;;5053358;28;19909;-87
2022/01/30 01:48:03;;;;;;;;;;;0.60;87.80;;;;;;5053015;28;19999;-87
2022/01/30 01:50:38;;;;;;;;;;;0.40;86.80;;;;;;5053273;28;19909;-87
2022/01/30 01:53:08;;;;;;;;;;;0.30;87.10;;;;;;5053186;28;19921;-87
2022/01/30 01:55:35;;;;;;;;;;;0.20;87.20;;;;;;5053154;28;20023;-87
2022/01/30 01:58:01;;;;;;;;;;;0.30;87.20;;;;;;5052633;28;19920;-87
2022/01/30 02:00:27;;;;;;;;;;;0.20;87.00;;;;;;5052389;28;19943;-87
2022/01/30 02:02:54;;;;;;;;;;;0.10;87.00;;;;;;5053108;28;19955;-87
2022/01/30 02:05:19;;;;;;;;;;;0.00;87.50;;;;;;5052877;28;19917;-87
2022/01/30 02:11:05;;;;;;;;;;;0.10;88.40;;;;;;5052901;28;20286;-87
2022/01/30 02:13:41;;;;;;;;;;;0.10;88.30;;;;;;5041564;28;20267;-87
2022/01/30 02:24:18;;;;;;;;;;;0.00;88.70;;;;;;5052251;28;19966;-87
2022/01/30 02:26:46;;;;;;;;;;;0.00;88.70;;;;;;5051865;28;19966;-87
2022/01/30 02:29:12;;;;;;;;;;;0.10;89.10;;;;;;5033811;28;19913;-87
2022/01/30 02:31:40;;;;;;;;;;;0.10;89.20;;;;;;5052524;28;19919;-87
2022/01/30 02:34:06;;;;;;;;;;;0.20;89.30;;;;;;5034920;28;19909;-87
2022/01/30 02:36:31;;;;;;;;;;;0.20;89.00;;;;;;5052480;28;19920;-87
2022/01/30 02:38:59;;;;;;;;;;;0.20;88.80;;;;;;5052179;28;20321;-87
2022/01/30 02:41:24;;;;;;;;;;;0.10;88.60;;;;;;5052433;28;19939;-87
2022/01/30 02:46:41;;;;;;;;;;;0.10;89.20;;;;;;5052404;28;20424;-87
2022/01/30 02:52:03;;;;;;;;;;;0.10;89.10;;;;;;5024406;28;19917;-87
2022/01/30 02:54:29;;;;;;;;;;;0.00;89.10;;;;;;5052082;28;19917;-87
2022/01/30 02:56:55;;;;;;;;;;;0.00;89.30;;;;;;5051939;28;19912;-87
2022/01/30 02:59:21;;;;;;;;;;;0.00;89.50;;;;;;5045272;28;19963;-87
2022/01/30 03:01:46;;;;;;;;;;;-3276.60;89.60;;;;;;5052224;28;19970;-87
2022/01/30 03:04:12;;;;;;;;;;;-3276.60;90.20;;;;;;5052513;28;20019;-87
2022/01/30 03:06:37;;;;;;;;;;;-3276.50;90.50;;;;;;5052480;28;19909;-87
2022/01/30 03:09:04;;;;;;;;;;;-3276.60;90.70;;;;;;5052347;28;20271;-87
2022/01/30 03:11:30;;;;;;;;;;;-3276.60;90.60;;;;;;5052451;28;20524;-87
2022/01/30 03:13:56;;;;;;;;;;;-3276.60;90.40;;;;;;5052401;28;19955;-87
2022/01/30 03:16:22;;;;;;;;;;;-3276.70;90.40;;;;;;5051934;28;19919;-87
2022/01/30 03:18:48;;;;;;;;;;;0.00;90.40;;;;;;5054005;28;19913;-87
2022/01/30 03:21:13;;;;;;;;;;;0.00;90.50;;;;;;5056283;28;19909;-87
2022/01/30 03:23:39;;;;;;;;;;;-3276.60;89.80;;;;;;5055974;28;19909;-87
2022/01/30 03:26:05;;;;;;;;;;;-3276.50;89.70;;;;;;5055527;28;19909;-87
2022/01/30 03:28:32;;;;;;;;;;;-3276.50;89.70;;;;;;5055771;28;19920;-87
2022/01/30 03:31:01;;;;;;;;;;;-3276.40;89.20;;;;;;5055516;28;19940;-87
2022/01/30 03:33:27;;;;;;;;;;;-3276.40;89.50;;;;;;5055754;28;19963;-87
2022/01/30 03:35:53;;;;;;;;;;;-3276.40;89.50;;;;;;5055472;28;19909;-87
2022/01/30 03:38:19;;;;;;;;;;;-3276.50;89.30;;;;;;5055756;28;19921;-87
2022/01/30 03:40:45;;;;;;;;;;;-3276.40;88.70;;;;;;5055535;28;19920;-87
2022/01/30 03:43:11;;;;;;;;;;;-3276.40;89.00;;;;;;5055620;28;19909;-87
2022/01/30 03:45:36;;;;;;;;;;;-3276.30;89.10;;;;;;5055295;28;20198;-87
2022/01/30 03:48:02;;;;;;;;;;;-3276.10;89.10;;;;;;5055536;28;19920;-87
2022/01/30 03:50:28;;;;;;;;;;;-3276.10;89.10;;;;;;5055461;28;19909;-87
2022/01/30 03:52:54;;;;;;;;;;;-3276.10;89.00;;;;;;5055696;28;19990;-87
2022/01/30 03:55:21;;;;;;;;;;;-3276.10;89.30;;;;;;5055100;28;20286;-87
2022/01/30 03:57:46;;;;;;;;;;;-3276.10;89.60;;;;;;5055278;28;19939;-87
2022/01/30 04:00:12;;;;;;;;;;;-3276.10;89.80;;;;;;5055083;28;19913;-87
2022/01/30 04:02:38;;;;;;;;;;;-3276.10;89.70;;;;;;5055054;28;20283;-87
2022/01/30 04:05:04;;;;;;;;;;;-3276.10;90.00;;;;;;5054960;28;19913;-87
2022/01/30 04:07:30;;;;;;;;;;;-3276.10;90.00;;;;;;5055330;28;19909;-87
2022/01/30 04:09:56;;;;;;;;;;;-3276.00;89.80;;;;;;5055084;28;19909;-87
2022/01/30 04:12:21;;;;;;;;;;;-3276.10;90.20;;;;;;5055067;28;19924;-87
2022/01/30 04:14:47;;;;;;;;;;;-3275.90;89.40;;;;;;5054683;28;20313;-87
2022/01/30 04:17:13;;;;;;;;;;;-3275.90;89.20;;;;;;5054502;28;19959;-87
2022/01/30 04:19:39;;;;;;;;;;;-3275.70;89.30;;;;;;5054913;28;19913;-87
2022/01/30 04:22:05;;;;;;;;;;;-3275.70;89.70;;;;;;5054952;28;19916;-87
2022/01/30 04:24:31;;;;;;;;;;;-3275.80;90.20;;;;;;5054578;28;19992;-87
2022/01/30 04:26:57;;;;;;;;;;;-3275.90;90.40;;;;;;5054814;28;19912;-87
2022/01/30 04:29:22;;;;;;;;;;;-3276.00;90.40;;;;;;5054316;28;20325;-87
2022/01/30 04:31:49;;;;;;;;;;;-3276.10;90.30;;;;;;5054368;28;19963;-87
2022/01/30 04:34:15;;;;;;;;;;;-3276.10;90.20;;;;;;5054926;28;20355;-87
2022/01/30 04:36:55;;;;;;;;;;;-3276.20;90.40;;;;;;5054252;28;19913;-87
2022/01/30 04:42:23;;;;;;;;;;;-3276.00;89.80;;;;;;5054833;28;20421;-87
2022/01/30 05:01:33;;;;;;;;;;;-3276.10;88.80;;;;;;5038188;28;20351;-87
2022/01/30 05:09:20;;;;;;;;;;;-3276.00;89.10;;;;;;5053780;28;19913;-87
2022/01/30 05:11:46;;;;;;;;;;;-3276.10;89.20;;;;;;5053903;28;19915;-87
2022/01/30 05:14:13;;;;;;;;;;;-3276.00;89.10;;;;;;5053902;28;19994;-87
2022/01/30 05:16:39;;;;;;;;;;;-3276.00;89.10;;;;;;5053803;28;19971;-87
2022/01/30 05:19:05;;;;;;;;;;;-3276.00;89.20;;;;;;5053740;28;20424;-87
2022/01/30 05:21:30;;;;;;;;;;;-3276.00;89.40;;;;;;5053771;28;19915;-87
2022/01/30 05:23:56;;;;;;;;;;;-3276.00;89.40;;;;;;5053708;28;19932;-87
2022/01/30 05:26:24;;;;;;;;;;;-3276.10;89.30;;;;;;5035542;28;20386;-87
2022/01/30 05:28:49;;;;;;;;;;;-3276.10;89.00;;;;;;5053511;28;20382;-87
2022/01/30 05:31:15;;;;;;;;;;;-3276.10;88.80;;;;;;5053326;28;19959;-87
2022/01/30 05:33:41;;;;;;;;;;;-3276.10;88.80;;;;;;5053567;28;19932;-87
2022/01/30 05:36:07;;;;;;;;;;;-3276.10;88.80;;;;;;5053165;28;20440;-87
2022/01/30 05:38:32;;;;;;;;;;;-3276.10;89.00;;;;;;5035227;28;19939;-87
2022/01/30 05:40:58;;;;;;;;;;;-3276.10;89.20;;;;;;5052673;28;19912;-87
2022/01/30 05:43:27;;;;;;;;;;;-3275.90;88.10;;;;;;5053401;28;19920;-87
2022/01/30 05:46:00;;;;;;;;;;;-3275.70;87.60;;;;;;5053049;28;19909;-87
2022/01/30 05:48:25;;;;;;;;;;;-3275.50;88.20;;;;;;5053302;28;19913;-87
2022/01/30 05:50:51;;;;;;;;;;;-3275.60;89.10;;;;;;5053277;28;19916;-87
2022/01/30 05:53:17;;;;;;;;;;;-3275.70;89.70;;;;;;5053281;28;19913;-87
2022/01/30 05:55:42;;;;;;;;;;;-3275.70;89.40;;;;;;5052940;28;19909;-87
2022/01/30 05:58:09;;;;;;;;;;;-3275.70;89.70;;;;;;5060566;22;19977;-87
2022/01/30 06:00:34;;;;;;;;;;;-3275.80;89.70;;;;;;5052799;28;19969;-88
2022/01/30 06:03:02;;;;;;;;;;;-3275.90;89.70;;;;;;5052341;28;21596;-87
2022/01/30 06:05:27;;;;;;;;;;;-3275.90;89.50;;;;;;5052945;28;19913;-87
2022/01/30 06:07:55;;;;;;;;;;;-3276.00;89.40;;;;;;5053020;28;20377;-87
2022/01/30 06:10:22;;;;;;;;;;;-3276.00;89.20;;;;;;5052990;28;19954;-87
2022/01/30 06:12:48;;;;;;;;;;;-3276.00;89.10;;;;;;5053223;28;19944;-87
2022/01/30 06:15:14;;;;;;;;;;;-3276.00;89.00;;;;;;5052748;28;20401;-87
2022/01/30 06:17:41;;;;;;;;;;;-3276.00;88.90;;;;;;5052778;28;19999;-87
2022/01/30 06:20:06;;;;;;;;;;;-3276.00;88.80;;;;;;5052499;28;19916;-87
2022/01/30 06:22:32;;;;;;;;;;;-3276.00;88.70;;;;;;5052932;28;19962;-87
2022/01/30 06:24:57;;;;;;;;;;;-3276.10;88.70;;;;;;5053182;28;19916;-87
2022/01/30 06:27:23;;;;;;;;;;;-3276.00;88.50;;;;;;5052586;28;19920;-87
2022/01/30 06:29:49;;;;;;;;;;;-3276.10;88.40;;;;;;5052794;28;19909;-87
2022/01/30 06:32:16;;;;;;;;;;;-3276.10;88.30;;;;;;5052716;28;19913;-87
2022/01/30 06:34:41;;;;;;;;;;;-3276.10;88.30;;;;;;5053144;28;19913;-87
2022/01/30 06:37:07;;;;;;;;;;;-3276.10;88.20;;;;;;5052604;28;20436;-87
2022/01/30 06:39:33;;;;;;;;;;;-3276.00;88.00;;;;;;5052736;28;19920;-87
2022/01/30 06:41:59;;;;;;;;;;;-3276.00;87.70;;;;;;5052786;28;19913;-87
2022/01/30 06:44:24;;;;;;;;;;;-3276.00;87.60;;;;;;5052774;28;20374;-87
2022/01/30 06:46:50;;;;;;;;;;;-3276.10;87.80;;;;;;5052326;28;19916;-87
2022/01/30 06:49:16;;;;;;;;;;;-3276.00;87.60;;;;;;5052443;28;19912;-87
2022/01/30 06:51:41;;;;;;;;;;;-3276.00;87.60;;;;;;5052017;28;20333;-87
2022/01/30 06:54:07;;;;;;;;;;;-3276.10;87.60;;;;;;5056145;28;19917;-87
2022/01/30 06:56:32;;;;;;;;;;;-3276.10;87.50;;;;;;5056315;28;20007;-87
2022/01/30 06:58:58;;;;;;;;;;;-3276.10;87.60;;;;;;5056252;28;19921;-87
2022/01/30 07:01:25;;;;;;;;;;;-3276.20;87.80;;;;;;5056122;28;19959;-87
2022/01/30 07:03:51;;;;;;;;;;;-3276.30;88.00;;;;;;5056318;28;19984;-87
2022/01/30 07:06:16;;;;;;;;;;;-3276.20;88.00;;;;;;5056068;28;20047;-87
2022/01/30 07:08:42;;;;;;;;;;;-3276.30;87.80;;;;;;5056509;28;20278;-87
2022/01/30 07:11:07;;;;;;;;;;;-3276.30;87.60;;;;;;5055962;28;20370;-87
2022/01/30 07:13:33;;;;;;;;;;;-3276.30;87.60;;;;;;5056459;28;19916;-87
2022/01/30 07:15:58;;;;;;;;;;;-3276.30;87.30;;;;;;5055424;28;20420;-87
2022/01/30 07:18:24;;;;;;;;;;;-3276.30;86.90;;;;;;5056111;28;20362;-87
2022/01/30 07:20:49;;;;;;;;;;;-3276.20;86.50;;;;;;5055717;28;19939;-88
2022/01/30 07:23:15;;;;;;;;;;;-3276.00;86.60;;;;;;5055856;28;20325;-87
2022/01/30 07:25:41;;;;;;;;;;;-3276.10;87.20;;;;;;5055988;28;20004;-87
2022/01/30 07:28:07;;;;;;;;;;;-3276.10;87.60;;;;;;5055592;28;19935;-87
2022/01/30 07:30:32;;;;;;;;;;;-3276.20;87.60;;;;;;5055923;28;20339;-87
2022/01/30 07:32:58;;;;;;;;;;;-3276.10;87.40;;;;;;5055845;28;19916;-87
2022/01/30 07:35:23;;;;;;;;;;;-3276.10;87.70;;;;;;5055808;28;19908;-87
2022/01/30 07:37:49;;;;;;;;;;;-3276.00;88.10;;;;;;5055473;28;19935;-87
2022/01/30 07:40:15;;;;;;;;;;;-3276.10;88.40;;;;;;5055614;28;19919;-87
2022/01/30 07:42:41;;;;;;;;;;;-3276.10;88.60;;;;;;5055914;28;19988;-87
2022/01/30 07:45:07;;;;;;;;;;;-3276.20;89.00;;;;;;5055624;28;20346;-88
2022/01/30 07:47:32;;;;;;;;;;;-3276.30;89.10;;;;;;5055263;28;19920;-87
2022/01/30 07:49:58;;;;;;;;;;;-3276.40;89.20;;;;;;5055753;28;19915;-87
2022/01/30 07:52:24;;;;;;;;;;;-3276.60;89.20;;;;;;5055486;28;19916;-88
2022/01/30 07:54:50;;;;;;;;;;;0.00;89.10;;;;;;5055401;28;19909;-87
2022/01/30 07:57:17;;;;;;;;;;;0.00;88.80;;;;;;5054891;28;19952;-87
2022/01/30 07:59:42;;;;;;;;;;;0.10;88.80;;;;;;5055261;28;19920;-87
2022/01/30 08:02:08;;;;;;;;;;;0.10;88.70;;;;;;5054963;28;20015;-87
2022/01/30 08:04:33;;;;;;;;;;;0.10;88.70;;;;;;5054221;28;20363;-87
2022/01/30 08:07:00;;;;;;;;;;;0.30;88.80;;;;;;5054985;28;20294;-87
2022/01/30 08:09:26;;;;;;;;;;;0.40;88.90;;;;;;5055115;28;19909;-87
2022/01/30 08:11:52;;;;;;;;;;;0.50;89.10;;;;;;5055082;28;19915;-87
2022/01/30 08:14:17;;;;;;;;;;;0.60;89.30;;;;;;5054801;28;20250;-88
2022/01/30 08:16:43;;;;;;;;;;;0.60;89.40;;;;;;5054671;28;20421;-87
2022/01/30 08:19:08;;;;;;;;;;;0.70;89.40;;;;;;5054637;28;19952;-87
2022/01/30 08:21:34;;;;;;;;;;;0.80;89.30;;;;;;5054899;28;19909;-87
2022/01/30 08:24:00;;;;;;;;;;;0.80;89.40;;;;;;5054428;28;20286;-87
2022/01/30 08:26:25;;;;;;;;;;;0.90;89.60;;;;;;5054632;28;19913;-87
2022/01/30 08:28:51;;;;;;;;;;;1.00;89.50;;;;;;5054703;28;19986;-87
2022/01/30 08:31:16;;;;;;;;;;;1.10;89.40;;;;;;5054488;28;19908;-87
2022/01/30 08:33:42;;;;;;;;;;;1.10;89.00;;;;;;5054452;28;19913;-87
2022/01/30 08:36:07;;;;;;;;;;;1.20;89.10;;;;;;5058975;28;19974;-87
2022/01/30 08:38:33;;;;;;;;;;;1.30;89.10;;;;;;5055855;28;19915;-87
2022/01/30 08:40:58;;;;;;;;;;;1.40;89.20;;;;;;5055639;28;19923;-87
2022/01/30 08:43:24;;;;;;;;;;;1.50;89.10;;;;;;5054435;28;19916;-88
2022/01/30 08:45:50;;;;;;;;;;;1.60;89.00;;;;;;5054415;28;19909;-88
2022/01/30 08:48:17;;;;;;;;;;;1.80;88.90;;;;;;5054186;28;20432;-87
2022/01/30 08:50:43;;;;;;;;;;;1.90;88.60;;;;;;5054346;28;19994;-88
2022/01/30 08:53:09;;;;;;;;;;;2.00;88.50;;;;;;5054266;28;19916;-87
2022/01/30 08:55:34;;;;;;;;;;;2.10;88.20;;;;;;5054205;28;19912;-88
2022/01/30 08:58:07;;;;;;;;;;;2.30;87.80;;;;;;5053662;28;19921;-88
2022/01/30 09:00:34;;;;;;;;;;;2.40;87.60;;;;;;5054310;28;19920;-87
2022/01/30 09:03:00;;;;;;;;;;;2.50;87.00;;;;;;5053756;28;20425;-88
2022/01/30 09:05:25;;;;;;;;;;;2.70;86.70;;;;;;5053998;28;19999;-87
2022/01/30 09:07:51;;;;;;;;;;;2.80;86.80;;;;;;5053600;28;20011;-87
2022/01/30 09:10:16;;;;;;;;;;;2.90;86.70;;;;;;5053800;28;20026;-87
2022/01/30 09:12:42;;;;;;;;;;;3.00;86.60;;;;;;5053902;28;19908;-88
2022/01/30 09:15:10;;;;;;;;;;;3.10;86.20;;;;;;5053533;28;19924;-87
2022/01/30 09:17:36;;;;;;;;;;;3.20;85.60;;;;;;5053059;28;19912;-88
2022/01/30 09:20:02;;;;;;;;;;;3.40;85.30;;;;;;5053742;28;20425;-87
2022/01/30 09:22:27;;;;;;;;;;;3.50;85.00;;;;;;5053625;28;19913;-87
2022/01/30 09:24:53;;;;;;;;;;;3.60;84.60;;;;;;5053419;28;19916;-88
2022/01/30 09:27:18;;;;;;;;;;;3.70;84.10;;;;;;5053630;28;19909;-87
2022/01/30 09:29:44;;;;;;;;;;;3.90;83.90;;;;;;5053042;28;19916;-88
2022/01/30 09:32:10;;;;;;;;;;;4.00;83.70;;;;;;5053310;28;19913;-88
2022/01/30 09:34:36;;;;;;;;;;;4.10;83.30;;;;;;5053603;28;19909;-87
2022/01/30 09:37:02;;;;;;;;;;;4.20;83.20;;;;;;5053637;28;19916;-87
2022/01/30 09:39:28;;;;;;;;;;;4.30;82.60;;;;;;5052979;28;20489;-88
2022/01/30 09:41:53;;;;;;;;;;;4.40;82.50;;;;;;5053295;28;19916;-88
2022/01/30 09:44:20;;;;;;;;;;;4.50;82.30;;;;;;5053183;28;19916;-87
2022/01/30 09:46:45;;;;;;;;;;;4.60;82.20;;;;;;5052705;28;19920;-88
2022/01/30 09:49:11;;;;;;;;;;;4.80;81.70;;;;;;5053124;28;19909;-88
2022/01/30 09:51:38;;;;;;;;;;;4.90;80.90;;;;;;5053161;28;20390;-88
2022/01/30 09:54:04;;;;;;;;;;;5.00;79.50;;;;;;5053301;28;19913;-88
2022/01/30 09:56:30;;;;;;;;;;;5.20;79.30;;;;;;5053215;28;20371;-87
2022/01/30 09:58:55;;;;;;;;;;;5.30;79.40;;;;;;5052990;28;20425;-88
2022/01/30 10:01:21;;;;;;;;;;;5.40;79.10;;;;;;5052883;28;19919;-88
2022/01/30 10:03:47;;;;;;;;;;;5.50;77.80;;;;;;5053351;28;20497;-88
2022/01/30 10:06:16;;;;;;;;;;;5.60;77.40;;;;;;5052767;28;19917;-88
2022/01/30 10:08:47;;;;;;;;;;;5.70;77.30;;;;;;5052976;28;19908;-88
2022/01/30 10:14:15;;;;;;;;;;;6.00;74.30;;;;;;5008678;28;19917;-88
2022/01/30 10:16:43;;;;;;;;;;;6.10;74.10;;;;;;5052629;28;19913;-87
2022/01/30 10:19:20;;;;;;;;;;;6.20;73.40;;;;;;5052914;28;20015;-88
2022/01/30 10:21:49;;;;;;;;;;;6.30;73.50;;;;;;5052901;28;19966;-87
2022/01/30 10:24:26;;;;;;;;;;;6.40;72.20;;;;;;5052549;28;19935;-88
2022/01/30 10:26:52;;;;;;;;;;;6.50;72.10;;;;;;5053442;28;19916;-88
2022/01/30 10:29:19;;;;;;;;;;;6.60;72.20;;;;;;5056956;28;19959;-88
2022/01/30 10:31:56;;;;;;;;;;;6.70;72.10;;;;;;5056423;28;19913;-88
2022/01/30 10:34:22;;;;;;;;;;;6.80;72.10;;;;;;5056924;28;20278;-87
2022/01/30 10:36:48;;;;;;;;;;;6.90;71.20;;;;;;5056869;28;19947;-88
2022/01/30 10:39:17;;;;;;;;;;;7.00;71.00;;;;;;5056786;28;19913;-88
2022/01/30 10:41:48;;;;;;;;;;;7.10;70.50;;;;;;5056766;28;19912;-88
2022/01/30 10:44:13;;;;;;;;;;;7.20;70.00;;;;;;5056510;28;20260;-87
2022/01/30 10:46:43;;;;;;;;;;;7.30;70.10;;;;;;5056369;28;19920;-87
2022/01/30 10:49:10;;;;;;;;;;;7.40;69.90;;;;;;5056703;28;19912;-88
2022/01/30 10:51:36;;;;;;;;;;;7.50;69.10;;;;;;5056326;28;19913;-87
2022/01/30 10:54:05;;;;;;;;;;;7.60;68.50;;;;;;5056600;28;19909;-88
2022/01/30 10:56:31;;;;;;;;;;;7.70;68.50;;;;;;5056536;28;19909;-87
2022/01/30 10:59:07;;;;;;;;;;;7.80;67.90;;;;;;5056269;28;19966;-88
2022/01/30 11:01:33;;;;;;;;;;;7.90;68.00;;;;;;5055971;28;19999;-88
2022/01/30 11:04:00;;;;;;;;;;;7.90;67.70;;;;;;5056374;28;20000;-88
2022/01/30 11:06:29;;;;;;;;;;;8.00;67.40;;;;;;5056316;28;19913;-88
2022/01/30 11:09:03;;;;;;;;;;;8.20;67.00;;;;;;5055600;28;19912;-88
2022/01/30 11:11:34;;;;;;;;;;;8.30;66.90;;;;;;5055724;28;19913;-88
2022/01/30 11:14:15;;;;;;;;;;;8.40;66.70;;;;;;5054966;28;19913;-88
2022/01/30 11:19:22;;;;;;;;;;;8.60;64.70;;;;;;5056358;28;19913;-88
2022/01/30 11:21:49;;;;;;;;;;;8.80;64.30;;;;;;5056103;28;19918;-88
2022/01/30 11:24:15;;;;;;;;;;;8.80;63.20;;;;;;5055812;28;19959;-88
2022/01/30 11:26:42;;;;;;;;;;;9.00;62.80;;;;;;5056030;28;19916;-88
2022/01/30 11:29:09;;;;;;;;;;;9.20;62.50;;;;;;5056130;28;19917;-88
2022/01/30 11:31:35;;;;;;;;;;;9.40;61.30;;;;;;5055542;28;20286;-88
2022/01/30 11:34:00;;;;;;;;;;;9.50;61.70;;;;;;5056069;28;19909;-87
2022/01/30 11:36:26;;;;;;;;;;;9.60;61.80;;;;;;5054344;28;20438;-88
2022/01/30 11:38:52;;;;;;;;;;;9.80;61.40;;;;;;5053944;28;20378;-88
2022/01/30 11:41:19;;;;;;;;;;;10.00;60.70;;;;;;5055146;28;19940;-88
2022/01/30 11:44:03;;;;;;;;;;;10.10;60.00;;;;;;5055374;28;20009;-88
2022/01/30 11:46:29;;;;;;;;;;;10.30;60.10;;;;;;5035912;28;19938;-87
2022/01/30 11:49:13;;;;;;;;;;;10.20;58.70;;;;;;5035644;28;20355;-88
2022/01/30 11:51:48;;;;;;;;;;;10.10;59.00;;;;;;5035618;28;19994;-88
2022/01/30 11:54:40;;;;;;;;;;;10.20;59.30;;;;;;5046849;28;19956;-88
2022/01/30 11:57:18;;;;;;;;;;;10.60;58.10;;;;;;5050718;28;19913;-88
2022/01/30 11:59:44;;;;;;;;;;;10.90;57.20;;;;;;5054992;28;19928;-89
2022/01/30 12:02:20;;;;;;;;;;;11.00;56.70;;;;;;5055109;28;19913;-88
2022/01/30 12:04:59;;;;;;;;;;;11.20;56.60;;;;;;5055266;28;19909;-88
2022/01/30 12:07:47;;;;;;;;;;;11.20;55.70;;;;;;5054991;28;20375;-89
2022/01/30 12:10:15;;;;;;;;;;;11.60;54.20;;;;;;5036959;28;19909;-89
2022/01/30 12:12:47;;;;;;;;;;;12.30;53.10;;;;;;5055158;28;19908;-88
2022/01/30 12:15:39;;;;;;;;;;;12.80;50.70;;;;;;5054883;28;19920;-88
2022/01/30 12:18:05;;;;;;;;;;;13.10;50.50;;;;;;5050919;28;20274;-88
2022/01/30 12:20:32;;;;;;;;;;;13.40;49.70;;;;;;5054653;28;19917;-89
2022/01/30 12:22:58;;;;;;;;;;;13.80;48.10;;;;;;5054962;28;19913;-88
2022/01/30 12:25:30;;;;;;;;;;;14.10;47.40;;;;;;5054702;28;20393;-89
2022/01/30 12:28:00;;;;;;;;;;;14.50;46.60;;;;;;5054769;28;20339;-88
2022/01/30 12:30:42;;;;;;;;;;;15.10;45.30;;;;;;5054405;28;19966;-89
2022/01/30 12:33:26;;;;;;;;;;;15.40;43.60;;;;;;5055375;28;19913;-89
2022/01/30 12:35:52;;;;;;;;;;;15.60;42.90;;;;;;5054434;28;20359;-89
2022/01/30 12:38:17;;;;;;;;;;;16.30;41.50;;;;;;5054407;28;19924;-89
2022/01/30 12:40:46;;;;;;;;;;;16.50;40.00;;;;;;5054400;28;19942;-89
2022/01/30 12:43:12;;;;;;;;;;;16.30;40.30;;;;;;5054567;28;19909;-89
2022/01/30 12:45:37;;;;;;;;;;;16.00;41.70;;;;;;5054261;28;19920;-89
2022/01/30 12:48:07;;;;;;;;;;;16.30;41.00;;;;;;5054443;28;19924;-89
2022/01/30 12:50:35;;;;;;;;;;;17.10;38.60;;;;;;5036126;28;19909;-89
2022/01/30 12:53:02;;;;;;;;;;;17.30;38.20;;;;;;5054333;28;20264;-89
2022/01/30 12:55:27;;;;;;;;;;;17.70;38.30;;;;;;5054246;28;19909;-89
2022/01/30 12:57:54;;;;;;;;;;;18.30;37.10;;;;;;5053874;28;19935;-89
2022/01/30 13:00:20;;;;;;;;;;;18.80;35.60;;;;;;5036185;28;20268;-89
2022/01/30 13:02:59;;;;;;;;;;;19.30;34.30;;;;;;5054178;28;19999;-89
2022/01/30 13:05:25;;;;;;;;;;;19.30;34.90;;;;;;5053831;28;19931;-89
2022/01/30 13:07:55;;;;;;;;;;;18.50;35.50;;;;;;5054342;28;19917;-89
2022/01/30 13:10:21;;;;;;;;;;;18.90;35.40;;;;;;5035466;28;19917;-89
2022/01/30 13:12:47;;;;;;;;;;;19.00;34.90;;;;;;5053733;28;19908;-89
2022/01/30 13:15:14;;;;;;;;;;;18.20;35.60;;;;;;5053897;28;19919;-89
2022/01/30 13:17:40;;;;;;;;;;;18.30;35.60;;;;;;5053561;28;20264;-89
2022/01/30 13:20:06;;;;;;;;;;;18.10;37.30;;;;;;5053770;28;19917;-89
2022/01/30 13:22:37;;;;;;;;;;;18.80;36.40;;;;;;5053564;28;19909;-89
2022/01/30 13:25:21;;;;;;;;;;;18.90;36.30;;;;;;5053979;28;19917;-89
2022/01/30 13:27:51;;;;;;;;;;;19.30;35.30;;;;;;5053305;28;19909;-89
2022/01/30 13:30:24;;;;;;;;;;;19.30;34.60;;;;;;5053433;28;19923;-89
2022/01/30 13:32:50;;;;;;;;;;;19.00;35.00;;;;;;5053826;28;19915;-89
2022/01/30 13:35:17;;;;;;;;;;;19.20;34.30;;;;;;5053577;28;20317;-89
2022/01/30 13:37:44;;;;;;;;;;;19.20;34.30;;;;;;5053225;28;19909;-89
2022/01/30 13:40:19;;;;;;;;;;;19.80;32.80;;;;;;5053386;28;19916;-89
2022/01/30 13:42:53;;;;;;;;;;;19.90;32.90;;;;;;5053743;28;19909;-89
2022/01/30 13:47:50;;;;;;;;;;;19.80;32.70;;;;;;5053450;28;19935;-89
2022/01/30 13:50:16;;;;;;;;;;;19.50;33.40;;;;;;5053374;28;20367;-89
2022/01/30 13:52:42;;;;;;;;;;;19.30;34.10;;;;;;5053296;28;19909;-89
2022/01/30 13:55:07;;;;;;;;;;;18.90;34.90;;;;;;5052900;28;19962;-89
2022/01/30 13:57:34;;;;;;;;;;;18.80;35.70;;;;;;5066248;22;19931;-88
2022/01/30 14:00:09;;;;;;;;;;;18.90;34.90;;;;;;5073414;28;19936;-89
2022/01/30 14:02:34;;;;;;;;;;;19.00;34.40;;;;;;5072367;28;19912;-89
2022/01/30 14:05:18;;;;;;;;;;;19.20;33.80;;;;;;5073223;28;19919;-89
2022/01/30 14:07:44;;;;;;;;;;;19.30;33.70;;;;;;5073173;28;19908;-89
2022/01/30 14:10:09;;;;;;;;;;;19.50;33.80;;;;;;5073043;28;19915;-89
2022/01/30 14:12:37;;;;;;;;;;;19.30;33.20;;;;;;5072724;28;20019;-89
2022/01/30 14:15:05;;;;;;;;;;;19.00;34.40;;;;;;5073109;28;19955;-89
2022/01/30 14:17:31;;;;;;;;;;;18.90;35.00;;;;;;5073066;28;19935;-89
2022/01/30 14:20:04;;;;;;;;;;;19.30;34.10;;;;;;5072963;28;19916;-89
2022/01/30 14:22:33;;;;;;;;;;;19.90;33.00;;;;;;5071537;28;19956;-89
2022/01/30 14:25:01;;;;;;;;;;;19.80;33.30;;;;;;5072615;28;20038;-89
2022/01/30 14:27:27;;;;;;;;;;;19.70;32.60;;;;;;5072658;28;19955;-89
2022/01/30 14:29:59;;;;;;;;;;;19.50;32.90;;;;;;5073161;28;19940;-89
2022/01/30 14:32:29;;;;;;;;;;;19.50;32.60;;;;;;5072871;28;19952;-89
2022/01/30 14:34:55;;;;;;;;;;;19.80;31.70;;;;;;5072927;28;19943;-88
2022/01/30 14:37:21;;;;;;;;;;;20.00;31.20;;;;;;5073113;28;19963;-89
2022/01/30 14:39:54;;;;;;;;;;;19.80;31.80;;;;;;5072778;28;20358;-88
2022/01/30 14:42:20;;;;;;;;;;;19.70;32.10;;;;;;5072791;28;19958;-89
2022/01/30 14:44:45;;;;;;;;;;;19.00;33.70;;;;;;5072817;28;20332;-89
2022/01/30 14:47:12;;;;;;;;;;;18.30;34.80;;;;;;5072815;28;19909;-89
2022/01/30 14:49:38;;;;;;;;;;;18.50;34.30;;;;;;5072720;28;19908;-89
2022/01/30 14:52:04;;;;;;;;;;;18.40;34.80;;;;;;5072441;28;20385;-88
2022/01/30 14:54:30;;;;;;;;;;;18.40;34.10;;;;;;5072541;28;19913;-89
2022/01/30 14:56:55;;;;;;;;;;;18.00;35.20;;;;;;5072463;28;20058;-89
2022/01/30 14:59:21;;;;;;;;;;;18.20;34.70;;;;;;5072631;28;20407;-89
2022/01/30 15:01:47;;;;;;;;;;;17.60;35.70;;;;;;5072389;28;19913;-89
2022/01/30 15:04:13;;;;;;;;;;;17.50;36.70;;;;;;5072902;28;20003;-89
2022/01/30 15:06:39;;;;;;;;;;;17.50;36.50;;;;;;5072611;28;19913;-89
2022/01/30 15:09:05;;;;;;;;;;;16.80;37.30;;;;;;5072478;28;19913;-88
2022/01/30 15:11:30;;;;;;;;;;;15.40;40.00;;;;;;5072208;28;20382;-88
2022/01/30 15:13:56;;;;;;;;;;;15.10;41.40;;;;;;5074429;28;19908;-88
2022/01/30 15:19:07;;;;;;;;;;;14.80;40.80;;;;;;5076151;28;19920;-88
2022/01/30 15:21:32;;;;;;;;;;;14.70;41.10;;;;;;5075787;28;20023;-88
2022/01/30 15:23:58;;;;;;;;;;;14.60;41.90;;;;;;5076065;28;20374;-88
2022/01/30 15:26:23;;;;;;;;;;;14.30;43.50;;;;;;5075873;28;19931;-89